createdAt,value
2022-10-26T00:01:10.807Z,17.33
2022-10-26T00:03:39.389Z,17.42
2022-10-26T00:06:09.477Z,16.05
2022-10-26T00:08:37.205Z,15.95
2022-10-26T00:11:04.930Z,17.13
2022-10-26T00:13:32.570Z,16.02
2022-10-26T00:18:27.954Z,17.00
2022-10-26T00:21:03.607Z,16.27
2022-10-26T00:23:31.507Z,16.60
2022-10-26T00:25:59.426Z,16.45
2022-10-26T00:28:29.514Z,15.45
2022-10-26T00:31:01.614Z,16.67
2022-10-26T00:33:30.110Z,17.13
2022-10-26T00:35:57.157Z,16.55
2022-10-26T00:38:26.664Z,16.52
2022-10-26T00:40:53.824Z,15.98
2022-10-26T00:43:23.542Z,15.85
2022-10-26T00:45:52.619Z,15.68
2022-10-26T00:48:28.533Z,15.18
2022-10-26T00:50:58.794Z,14.65
2022-10-26T00:53:26.423Z,14.95
2022-10-26T00:55:56.651Z,14.00
2022-10-26T00:58:26.182Z,14.18
2022-10-26T01:00:55.832Z,14.00
2022-10-26T01:03:25.417Z,12.15
2022-10-26T01:05:56.707Z,13.38
2022-10-26T01:08:24.415Z,13.50
2022-10-26T01:10:52.336Z,12.73
2022-10-26T01:13:19.983Z,12.82
2022-10-26T01:16:02.367Z,12.52
2022-10-26T01:18:32.347Z,12.07
2022-10-26T01:21:25.693Z,12.20
2022-10-26T01:24:11.813Z,12.32
2022-10-26T01:27:00.232Z,12.93
2022-10-26T01:30:05.696Z,12.45
2022-10-26T01:32:52.763Z,10.98
2022-10-26T01:36:00.880Z,12.27
2022-10-26T01:38:54.691Z,12.30
2022-10-26T01:41:36.162Z,12.63
2022-10-26T01:44:07.120Z,12.93
2022-10-26T01:46:39.510Z,11.82
2022-10-26T01:49:13.139Z,11.93
2022-10-26T01:51:43.213Z,11.55
2022-10-26T01:54:10.386Z,12.98
2022-10-26T01:56:42.270Z,12.05
2022-10-26T01:59:26.807Z,12.45
2022-10-26T02:02:16.798Z,11.25
2022-10-26T02:05:08.643Z,11.18
2022-10-26T02:08:06.093Z,12.45
2022-10-26T02:10:54.069Z,11.40
2022-10-26T02:13:42.323Z,11.90
2022-10-26T02:16:25.070Z,11.25
2022-10-26T02:19:02.976Z,11.13
2022-10-26T02:21:38.820Z,10.60
2022-10-26T02:24:09.718Z,11.38
2022-10-26T02:26:38.188Z,10.82
2022-10-26T02:29:09.712Z,10.98
2022-10-26T02:31:37.843Z,10.63
2022-10-26T02:34:08.104Z,10.88
2022-10-26T02:36:39.072Z,10.65
2022-10-26T02:39:08.192Z,9.57
2022-10-26T02:41:36.855Z,10.57
2022-10-26T02:44:16.143Z,11.00
2022-10-26T02:46:44.642Z,11.00
2022-10-26T02:49:13.381Z,9.98
2022-10-26T02:51:46.072Z,9.60
2022-10-26T02:54:20.119Z,11.15
2022-10-26T02:57:22.648Z,9.98
2022-10-26T02:59:49.943Z,11.00
2022-10-26T03:02:18.728Z,10.68
2022-10-26T03:04:45.843Z,10.75
2022-10-26T03:07:12.831Z,11.25
2022-10-26T03:09:39.921Z,11.13
2022-10-26T03:12:06.948Z,10.50
2022-10-26T03:14:33.895Z,10.40
2022-10-26T03:17:00.934Z,10.48
2022-10-26T03:19:27.920Z,10.73
2022-10-26T03:21:55.183Z,11.18
2022-10-26T03:24:22.137Z,10.43
2022-10-26T03:26:49.034Z,10.52
2022-10-26T03:29:16.111Z,10.55
2022-10-26T03:31:43.210Z,10.68
2022-10-26T03:34:10.295Z,10.65
2022-10-26T03:36:39.985Z,10.63
2022-10-26T03:39:07.032Z,10.27
2022-10-26T03:41:33.956Z,10.95
2022-10-26T03:44:00.931Z,9.85
2022-10-26T03:46:27.919Z,10.02
2022-10-26T03:48:55.007Z,10.80
2022-10-26T03:51:24.905Z,9.90
2022-10-26T03:53:52.004Z,9.73
2022-10-26T03:56:20.367Z,10.13
2022-10-26T03:58:47.299Z,9.35
2022-10-26T04:01:14.553Z,10.32
2022-10-26T04:03:42.610Z,10.02
2022-10-26T04:06:09.643Z,10.20
2022-10-26T04:08:36.711Z,10.35
2022-10-26T04:11:04.839Z,10.02
2022-10-26T04:13:32.088Z,10.95
2022-10-26T04:15:59.223Z,10.20
2022-10-26T04:18:26.323Z,11.77
2022-10-26T04:20:53.311Z,10.30
2022-10-26T04:23:20.467Z,11.25
2022-10-26T04:25:47.596Z,12.38
2022-10-26T04:28:14.899Z,13.02
2022-10-26T04:30:42.130Z,13.48
2022-10-26T04:33:09.301Z,12.75
2022-10-26T04:35:36.283Z,13.30
2022-10-26T04:38:07.523Z,12.70
2022-10-26T04:40:35.495Z,12.85
2022-10-26T04:43:02.646Z,12.10
2022-10-26T04:45:31.069Z,12.10
2022-10-26T04:48:08.410Z,11.55
2022-10-26T04:50:35.769Z,11.23
2022-10-26T04:53:07.559Z,10.85
2022-10-26T04:55:35.147Z,10.77
2022-10-26T04:58:02.523Z,11.65
2022-10-26T05:00:32.762Z,10.05
2022-10-26T05:03:05.114Z,10.52
2022-10-26T05:05:33.541Z,10.95
2022-10-26T05:08:00.549Z,10.23
2022-10-26T05:10:28.384Z,10.68
2022-10-26T05:12:56.787Z,10.05
2022-10-26T05:15:24.167Z,9.75
2022-10-26T05:17:59.178Z,10.25
2022-10-26T05:20:30.245Z,9.18
2022-10-26T05:23:05.057Z,9.65
2022-10-26T05:25:34.891Z,9.67
2022-10-26T05:28:04.264Z,10.02
2022-10-26T05:30:32.399Z,10.30
2022-10-26T05:33:03.081Z,9.32
2022-10-26T05:35:30.450Z,9.48
2022-10-26T05:37:57.514Z,9.57
2022-10-26T05:40:24.730Z,9.95
2022-10-26T05:42:52.467Z,9.30
2022-10-26T05:45:19.556Z,9.65
2022-10-26T05:47:47.057Z,9.63
2022-10-26T05:50:14.636Z,9.30
2022-10-26T05:52:42.161Z,9.75
2022-10-26T05:55:10.447Z,9.57
2022-10-26T05:57:38.183Z,9.88
2022-10-26T06:00:10.786Z,8.80
2022-10-26T06:05:13.513Z,9.23
2022-10-26T06:07:40.855Z,8.80
2022-10-26T06:10:11.067Z,8.90
2022-10-26T06:12:38.297Z,9.02
2022-10-26T06:15:06.076Z,9.68
2022-10-26T06:17:53.908Z,9.63
2022-10-26T06:20:31.370Z,9.60
2022-10-26T06:23:29.021Z,8.60
2022-10-26T06:26:02.971Z,9.75
2022-10-26T06:28:50.960Z,9.50
2022-10-26T06:31:18.161Z,10.30
2022-10-26T06:33:45.464Z,9.68
2022-10-26T06:36:27.509Z,9.82
2022-10-26T06:38:59.923Z,10.35
2022-10-26T06:41:27.227Z,9.27
2022-10-26T06:43:54.537Z,9.70
2022-10-26T06:46:27.427Z,9.57
2022-10-26T06:49:08.911Z,9.60
2022-10-26T06:51:59.821Z,10.07
2022-10-26T06:54:41.851Z,9.65
2022-10-26T06:57:14.822Z,12.98
2022-10-26T06:59:47.924Z,11.40
2022-10-26T07:02:15.780Z,10.38
2022-10-26T07:04:43.622Z,9.65
2022-10-26T07:07:19.962Z,10.40
2022-10-26T07:09:46.919Z,10.15
2022-10-26T07:12:13.857Z,9.95
2022-10-26T07:14:40.986Z,10.48
2022-10-26T07:17:09.249Z,16.17
2022-10-26T07:19:36.335Z,10.88
2022-10-26T07:22:04.027Z,10.13
2022-10-26T07:24:31.568Z,10.05
2022-10-26T07:26:58.878Z,10.60
2022-10-26T07:29:27.006Z,10.98
2022-10-26T07:34:25.983Z,10.45
2022-10-26T07:36:53.016Z,10.88
2022-10-26T07:39:19.898Z,11.63
2022-10-26T07:41:47.294Z,11.13
2022-10-26T07:44:14.298Z,12.00
2022-10-26T07:46:41.504Z,11.05
2022-10-26T07:49:08.643Z,11.25
2022-10-26T07:51:35.641Z,11.13
2022-10-26T07:54:03.152Z,11.18
2022-10-26T07:56:30.216Z,11.55
2022-10-26T07:58:58.146Z,11.90
2022-10-26T08:01:25.295Z,12.32
2022-10-26T08:03:54.111Z,12.18
2022-10-26T08:06:22.655Z,12.52
2022-10-26T08:08:50.313Z,11.90
2022-10-26T08:11:17.932Z,12.85
2022-10-26T08:13:44.976Z,13.45
2022-10-26T08:16:12.056Z,12.48
2022-10-26T08:18:39.127Z,12.23
2022-10-26T08:21:11.687Z,12.95
2022-10-26T08:23:41.523Z,12.98
2022-10-26T08:26:11.458Z,12.73
2022-10-26T08:28:39.733Z,13.18
2022-10-26T08:31:07.447Z,13.07
2022-10-26T08:33:34.500Z,13.65
2022-10-26T08:36:05.262Z,13.43
2022-10-26T08:38:33.950Z,12.90
2022-10-26T08:41:09.006Z,12.23
2022-10-26T08:43:50.291Z,12.85
2022-10-26T08:46:25.532Z,12.63
2022-10-26T08:49:03.915Z,12.48
2022-10-26T08:51:36.373Z,12.65
2022-10-26T08:54:27.735Z,13.05
2022-10-26T08:56:59.286Z,13.15
2022-10-26T08:59:35.932Z,14.93
2022-10-26T09:02:03.496Z,13.40
2022-10-26T09:04:32.294Z,25.42
2022-10-26T09:07:05.927Z,16.02
2022-10-26T09:10:04.316Z,15.10
2022-10-26T09:12:56.438Z,14.85
2022-10-26T09:15:39.372Z,15.07
2022-10-26T09:18:06.311Z,15.07
2022-10-26T09:20:46.626Z,14.68
2022-10-26T09:23:38.465Z,17.02
2022-10-26T09:26:11.312Z,16.02
2022-10-26T09:28:40.716Z,16.25
2022-10-26T09:31:15.273Z,17.45
2022-10-26T09:33:42.250Z,18.37
2022-10-26T09:36:20.817Z,18.42
2022-10-26T09:38:56.170Z,17.23
2022-10-26T09:41:45.381Z,17.70
2022-10-26T09:44:24.401Z,17.60
2022-10-26T09:47:06.477Z,18.45
2022-10-26T09:49:42.561Z,19.25
2022-10-26T09:54:41.678Z,19.80
2022-10-26T09:57:13.022Z,19.08
2022-10-26T09:59:41.043Z,18.25
2022-10-26T10:02:36.259Z,18.95
2022-10-26T10:05:27.550Z,18.90
2022-10-26T10:08:16.182Z,18.20
2022-10-26T10:11:15.303Z,19.80
2022-10-26T10:13:44.727Z,18.42
2022-10-26T10:16:24.407Z,20.00
2022-10-26T10:18:59.399Z,27.50
2022-10-26T10:21:38.716Z,22.42
2022-10-26T10:24:26.553Z,20.67
2022-10-26T10:27:00.751Z,21.13
2022-10-26T10:29:40.398Z,20.60
2022-10-26T10:32:17.281Z,18.98
2022-10-26T10:34:44.511Z,19.90
2022-10-26T10:37:30.605Z,20.08
2022-10-26T10:40:00.460Z,22.60
2022-10-26T10:42:31.924Z,24.67
2022-10-26T10:45:00.728Z,23.70
2022-10-26T10:47:31.192Z,24.05
2022-10-26T10:50:15.375Z,21.67
2022-10-26T10:52:42.761Z,22.60
2022-10-26T10:55:20.790Z,22.80
2022-10-26T10:58:06.576Z,24.38
2022-10-26T11:00:37.423Z,23.45
2022-10-26T11:03:26.212Z,23.45
2022-10-26T11:06:25.463Z,22.40
2022-10-26T11:08:55.834Z,22.00
2022-10-26T11:11:28.758Z,25.23
2022-10-26T11:14:06.287Z,23.67
2022-10-26T11:17:00.830Z,24.77
2022-10-26T11:19:47.999Z,24.80
2022-10-26T11:22:20.835Z,26.30
2022-10-26T11:24:54.199Z,26.80
2022-10-26T11:27:34.590Z,27.42
2022-10-26T11:30:18.203Z,28.00
2022-10-26T11:33:00.482Z,27.88
2022-10-26T11:35:35.668Z,29.60
2022-10-26T11:38:45.690Z,27.55
2022-10-26T11:41:33.449Z,28.27
2022-10-26T11:44:12.075Z,28.85
2022-10-26T11:46:44.515Z,30.15
2022-10-26T11:49:14.459Z,27.30
2022-10-26T11:52:37.843Z,28.48
2022-10-26T11:55:05.170Z,27.20
2022-10-26T11:57:37.230Z,24.63
2022-10-26T12:00:17.272Z,26.92
2022-10-26T12:02:50.113Z,23.92
2022-10-26T12:05:25.365Z,26.40
2022-10-26T12:08:00.667Z,24.77
2022-10-26T12:10:31.878Z,24.38
2022-10-26T12:13:05.010Z,25.48
2022-10-26T12:16:04.559Z,23.33
2022-10-26T12:18:54.082Z,23.50
2022-10-26T12:21:22.068Z,23.23
2022-10-26T12:23:59.384Z,24.67
2022-10-26T12:26:26.339Z,23.38
2022-10-26T12:29:02.114Z,24.95
2022-10-26T12:31:38.338Z,25.10
2022-10-26T12:34:14.688Z,23.52
2022-10-26T12:36:57.103Z,22.92
2022-10-26T12:39:41.094Z,22.00
2022-10-26T12:42:16.889Z,22.92
2022-10-26T12:44:45.616Z,21.15
2022-10-26T12:47:27.901Z,21.63
2022-10-26T12:50:01.682Z,21.17
2022-10-26T12:52:42.750Z,20.58
2022-10-26T12:55:12.552Z,21.67
2022-10-26T12:58:17.204Z,19.60
2022-10-26T13:01:08.473Z,19.45
2022-10-26T13:03:53.574Z,18.25
2022-10-26T13:06:48.063Z,19.03
2022-10-26T13:09:24.368Z,20.58
2022-10-26T13:11:55.461Z,20.38
2022-10-26T13:14:35.452Z,19.45
2022-10-26T13:17:17.938Z,22.85
2022-10-26T13:19:48.258Z,21.58
2022-10-26T13:22:19.384Z,20.92
2022-10-26T13:24:53.483Z,19.13
2022-10-26T13:27:24.674Z,19.75
2022-10-26T13:30:03.835Z,19.58
2022-10-26T13:32:40.154Z,19.52
2022-10-26T13:35:13.431Z,20.02
2022-10-26T13:37:47.160Z,20.42
2022-10-26T13:40:18.645Z,20.35
2022-10-26T13:42:54.800Z,19.88
2022-10-26T13:45:47.525Z,22.80
2022-10-26T13:48:35.805Z,20.17
2022-10-26T13:51:15.078Z,19.58
2022-10-26T13:53:54.213Z,20.48
2022-10-26T13:56:40.074Z,22.67
2022-10-26T13:59:11.354Z,20.13
2022-10-26T14:01:38.682Z,19.48
2022-10-26T14:04:26.909Z,20.55
2022-10-26T14:06:54.840Z,21.33
2022-10-26T14:09:22.775Z,20.98
2022-10-26T14:11:53.029Z,20.58
2022-10-26T14:14:25.675Z,20.10
2022-10-26T14:16:54.059Z,20.33
2022-10-26T14:19:25.302Z,19.52
2022-10-26T14:21:53.211Z,18.40
2022-10-26T14:24:35.760Z,18.77
2022-10-26T14:27:19.374Z,19.60
2022-10-26T14:30:03.743Z,19.02
2022-10-26T14:32:34.011Z,21.88
2022-10-26T14:35:01.110Z,20.70
2022-10-26T14:37:31.142Z,20.20
2022-10-26T14:39:58.402Z,21.58
2022-10-26T14:42:28.770Z,21.13
2022-10-26T14:44:56.985Z,20.63
2022-10-26T14:47:25.582Z,19.10
2022-10-26T14:49:52.886Z,18.67
2022-10-26T14:52:26.542Z,18.65
2022-10-26T14:55:25.889Z,19.95
2022-10-26T14:58:06.807Z,19.35
2022-10-26T15:00:34.464Z,19.20
2022-10-26T15:03:01.999Z,19.58
2022-10-26T15:05:35.657Z,20.98
2022-10-26T15:08:03.327Z,19.95
2022-10-26T15:10:36.568Z,20.52
2022-10-26T15:13:10.259Z,19.92
2022-10-26T15:15:39.693Z,21.67
2022-10-26T15:18:20.210Z,19.80
2022-10-26T15:20:49.665Z,19.92
2022-10-26T15:23:17.660Z,19.25
2022-10-26T15:25:59.379Z,19.67
2022-10-26T15:28:31.099Z,20.35
2022-10-26T15:31:07.905Z,21.23
2022-10-26T15:33:35.821Z,18.92
2022-10-26T15:36:08.763Z,20.83
2022-10-26T15:38:36.019Z,21.48
2022-10-26T15:41:14.418Z,20.75
2022-10-26T15:43:41.533Z,20.92
2022-10-26T15:46:08.524Z,21.40
2022-10-26T15:48:36.162Z,21.45
2022-10-26T15:51:03.198Z,20.80
2022-10-26T15:53:30.557Z,20.10
2022-10-26T15:55:59.657Z,21.45
2022-10-26T15:58:28.634Z,20.65
2022-10-26T16:00:55.636Z,22.17
2022-10-26T16:03:24.641Z,20.50
2022-10-26T16:06:00.743Z,20.70
2022-10-26T16:08:30.769Z,20.08
2022-10-26T16:10:57.992Z,21.40
2022-10-26T16:13:24.940Z,20.23
2022-10-26T16:15:51.907Z,19.83
2022-10-26T16:18:19.036Z,21.00
2022-10-26T16:20:46.510Z,19.85
2022-10-26T16:23:13.650Z,21.70
2022-10-26T16:25:45.888Z,22.40
2022-10-26T16:28:15.342Z,21.83
2022-10-26T16:30:42.688Z,22.20
2022-10-26T16:33:09.589Z,23.48
2022-10-26T16:35:36.521Z,24.48
2022-10-26T16:38:03.549Z,23.10
2022-10-26T16:40:30.498Z,23.05
2022-10-26T16:42:57.435Z,20.92
2022-10-26T16:45:24.339Z,21.45
2022-10-26T16:47:51.450Z,22.52
2022-10-26T16:50:21.171Z,22.15
2022-10-26T16:52:48.168Z,21.65
2022-10-26T16:55:15.563Z,22.15
2022-10-26T16:57:42.641Z,20.45
2022-10-26T17:00:10.043Z,21.70
2022-10-26T17:02:37.043Z,22.33
2022-10-26T17:05:07.210Z,21.13
2022-10-26T17:07:35.393Z,21.90
2022-10-26T17:10:02.375Z,22.83
2022-10-26T17:12:29.866Z,23.65
2022-10-26T17:14:58.833Z,20.92
2022-10-26T17:17:25.861Z,22.25
2022-10-26T17:19:52.806Z,23.67
2022-10-26T17:22:19.727Z,23.92
2022-10-26T17:24:46.634Z,23.73
2022-10-26T17:27:13.656Z,22.75
2022-10-26T17:29:40.597Z,25.75
2022-10-26T17:32:07.543Z,25.25
2022-10-26T17:34:34.553Z,28.90
2022-10-26T17:37:01.452Z,32.63
2022-10-26T17:39:29.497Z,36.83
2022-10-26T17:41:56.461Z,41.97
2022-10-26T17:44:23.873Z,32.90
2022-10-26T17:46:50.789Z,26.58
2022-10-26T17:49:17.790Z,25.50
2022-10-26T17:51:44.883Z,24.10
2022-10-26T17:54:11.859Z,22.73
2022-10-26T17:56:39.337Z,23.92
2022-10-26T17:59:11.156Z,23.00
2022-10-26T18:01:38.732Z,22.20
2022-10-26T18:04:05.634Z,21.30
2022-10-26T18:06:32.701Z,22.63
2022-10-26T18:08:59.628Z,22.15
2022-10-26T18:11:28.382Z,21.85
2022-10-26T18:13:56.346Z,21.95
2022-10-26T18:16:24.647Z,22.23
2022-10-26T18:19:00.326Z,21.83
2022-10-26T18:21:29.511Z,21.55
2022-10-26T18:23:56.709Z,22.23
2022-10-26T18:26:26.497Z,22.30
2022-10-26T18:28:55.093Z,20.88
2022-10-26T18:31:23.600Z,22.10
2022-10-26T18:33:58.650Z,21.58
2022-10-26T18:36:26.630Z,23.90
2022-10-26T18:38:54.546Z,23.55
2022-10-26T18:41:23.422Z,22.60
2022-10-26T18:43:52.689Z,23.40
2022-10-26T18:46:23.759Z,23.15
2022-10-26T18:48:55.639Z,23.15
2022-10-26T18:51:25.961Z,22.42
2022-10-26T18:53:52.992Z,22.98
2022-10-26T18:56:22.133Z,23.70
2022-10-26T18:58:50.978Z,22.50
2022-10-26T19:01:23.685Z,22.73
2022-10-26T19:04:02.316Z,23.23
2022-10-26T19:06:30.355Z,22.80
2022-10-26T19:08:58.214Z,22.85
2022-10-26T19:11:26.968Z,22.33
2022-10-26T19:13:54.179Z,24.13
2022-10-26T19:16:40.699Z,23.48
2022-10-26T19:19:10.645Z,23.70
2022-10-26T19:21:37.825Z,25.27
2022-10-26T19:24:05.291Z,25.55
2022-10-26T19:26:36.751Z,26.80
2022-10-26T19:29:07.582Z,24.52
2022-10-26T19:31:36.170Z,23.88
2022-10-26T19:34:04.366Z,25.17
2022-10-26T19:36:32.166Z,24.58
2022-10-26T19:38:59.891Z,24.60
2022-10-26T19:41:28.590Z,24.50
2022-10-26T19:43:57.073Z,25.08
2022-10-26T19:46:27.142Z,25.23
2022-10-26T19:48:56.834Z,24.83
2022-10-26T19:51:25.026Z,23.27
2022-10-26T19:53:52.232Z,24.48
2022-10-26T19:56:21.006Z,24.05
2022-10-26T19:58:50.994Z,24.35
2022-10-26T20:01:18.750Z,25.13
2022-10-26T20:03:46.321Z,25.83
2022-10-26T20:06:13.855Z,24.02
2022-10-26T20:08:43.472Z,23.15
2022-10-26T20:11:15.452Z,25.83
2022-10-26T20:13:45.141Z,26.60
2022-10-26T20:16:13.643Z,24.95
2022-10-26T20:18:44.282Z,23.25
2022-10-26T20:21:16.218Z,24.27
2022-10-26T20:23:44.245Z,23.20
2022-10-26T20:26:18.778Z,25.23
2022-10-26T20:28:49.055Z,23.90
2022-10-26T20:31:16.743Z,23.80
2022-10-26T20:33:44.263Z,24.45
2022-10-26T20:36:11.645Z,24.25
2022-10-26T20:38:39.773Z,25.40
2022-10-26T20:41:11.979Z,25.58
2022-10-26T20:43:40.502Z,22.52
2022-10-26T20:46:26.902Z,23.77
2022-10-26T20:48:54.677Z,25.02
2022-10-26T20:52:08.679Z,23.20
2022-10-26T20:54:54.855Z,23.95
2022-10-26T20:57:27.345Z,23.33
2022-10-26T21:00:03.533Z,23.75
2022-10-26T21:02:31.321Z,25.35
2022-10-26T21:04:58.241Z,23.77
2022-10-26T21:07:25.229Z,23.35
2022-10-26T21:09:52.398Z,23.30
2022-10-26T21:12:19.527Z,24.17
2022-10-26T21:14:46.512Z,23.13
2022-10-26T21:17:13.474Z,23.73
2022-10-26T21:19:41.867Z,23.38
2022-10-26T21:22:08.823Z,24.08
2022-10-26T21:27:03.677Z,22.15
2022-10-26T21:29:30.632Z,23.00
2022-10-26T21:31:57.761Z,24.10
2022-10-26T21:34:25.136Z,22.05
2022-10-26T21:36:52.505Z,24.55
2022-10-26T21:39:19.474Z,23.88
2022-10-26T21:41:46.737Z,23.90
2022-10-26T21:44:32.603Z,23.33
2022-10-26T21:47:00.494Z,23.33
2022-10-26T21:49:27.458Z,23.02
2022-10-26T21:51:54.381Z,24.00
2022-10-26T21:54:21.459Z,23.67
2022-10-26T21:56:48.347Z,23.75
2022-10-26T21:59:15.301Z,24.35
2022-10-26T22:01:42.296Z,23.65
2022-10-26T22:04:10.516Z,23.55
2022-10-26T22:06:37.509Z,23.77
2022-10-26T22:09:04.903Z,23.30
2022-10-26T22:11:33.700Z,22.33
2022-10-26T22:14:00.731Z,23.30
2022-10-26T22:16:30.369Z,22.40
2022-10-26T22:19:01.832Z,22.65
2022-10-26T22:21:34.997Z,23.15
2022-10-26T22:24:02.363Z,23.23
2022-10-26T22:26:29.810Z,22.48
2022-10-26T22:28:57.592Z,20.75
2022-10-26T22:31:27.798Z,22.55
2022-10-26T22:33:57.105Z,23.70
2022-10-26T22:36:24.902Z,22.73
2022-10-26T22:38:52.371Z,23.63
2022-10-26T22:41:21.228Z,22.08
2022-10-26T22:43:48.487Z,22.95
2022-10-26T22:46:21.531Z,22.02
2022-10-26T22:48:53.668Z,22.08
2022-10-26T22:51:22.167Z,21.95
2022-10-26T22:53:53.915Z,22.40
2022-10-26T22:56:21.804Z,22.40
2022-10-26T22:58:49.347Z,20.77
2022-10-26T23:01:18.916Z,22.05
2022-10-26T23:03:46.266Z,23.42
2022-10-26T23:06:16.277Z,21.83
2022-10-26T23:08:43.611Z,23.33
2022-10-26T23:11:13.390Z,22.02
2022-10-26T23:13:40.435Z,21.08
2022-10-26T23:16:10.122Z,21.00
2022-10-26T23:18:37.389Z,21.25
2022-10-26T23:21:05.991Z,22.38
2022-10-26T23:23:33.666Z,21.77
2022-10-26T23:26:02.273Z,20.77
2022-10-26T23:28:29.298Z,23.13
2022-10-26T23:30:56.303Z,21.00
2022-10-26T23:33:23.388Z,21.75
2022-10-26T23:35:51.413Z,21.50
2022-10-26T23:38:18.775Z,20.60
2022-10-26T23:40:53.826Z,20.27
2022-10-26T23:43:21.090Z,18.80
2022-10-26T23:45:48.234Z,18.58
2022-10-26T23:48:15.890Z,19.45
2022-10-26T23:50:43.532Z,18.70
2022-10-26T23:53:11.665Z,18.25
2022-10-26T23:55:39.221Z,17.40
2022-10-26T23:58:06.630Z,17.98
